sensor_id;sensor_type;location;lat;lon;timestamp;P1;durP1;ratioP1;P2;durP2;ratioP2
69970;SDS011;57301;50.328;8.542;2024-03-23T00:55:44;23.33;;;11.35;;
69970;SDS011;57301;50.328;8.542;2024-03-23T00:58:09;24.90;;;11.75;;
69970;SDS011;57301;50.328;8.542;2024-03-23T01:00:35;26.30;;;11.97;;
69970;SDS011;57301;50.328;8.542;2024-03-23T01:03:00;30.37;;;12.83;;
69970;SDS011;57301;50.328;8.542;2024-03-23T01:05:26;31.20;;;14.55;;
69970;SDS011;57301;50.328;8.542;2024-03-23T01:07:51;27.93;;;13.20;;
69970;SDS011;57301;50.328;8.542;2024-03-23T01:10:17;24.05;;;11.77;;
69970;SDS011;57301;50.328;8.542;2024-03-23T01:12:43;26.20;;;12.27;;
69970;SDS011;57301;50.328;8.542;2024-03-23T01:15:08;29.37;;;12.63;;
69970;SDS011;57301;50.328;8.542;2024-03-23T01:17:34;28.70;;;13.25;;
69970;SDS011;57301;50.328;8.542;2024-03-23T01:20:00;30.17;;;14.00;;
69970;SDS011;57301;50.328;8.542;2024-03-23T01:22:25;35.20;;;15.63;;
69970;SDS011;57301;50.328;8.542;2024-03-23T01:24:51;38.67;;;16.33;;
69970;SDS011;57301;50.328;8.542;2024-03-23T01:27:16;36.00;;;15.90;;
69970;SDS011;57301;50.328;8.542;2024-03-23T01:29:42;35.93;;;13.87;;
69970;SDS011;57301;50.328;8.542;2024-03-23T01:32:07;35.77;;;16.07;;
69970;SDS011;57301;50.328;8.542;2024-03-23T01:34:33;35.15;;;16.52;;
69970;SDS011;57301;50.328;8.542;2024-03-23T01:36:59;32.57;;;15.07;;
69970;SDS011;57301;50.328;8.542;2024-03-23T01:39:24;30.40;;;14.40;;
69970;SDS011;57301;50.328;8.542;2024-03-23T01:41:50;32.40;;;15.48;;
69970;SDS011;57301;50.328;8.542;2024-03-23T01:44:16;33.72;;;15.52;;
69970;SDS011;57301;50.328;8.542;2024-03-23T01:46:42;32.88;;;15.18;;
69970;SDS011;57301;50.328;8.542;2024-03-23T01:49:09;34.87;;;15.83;;
69970;SDS011;57301;50.328;8.542;2024-03-23T01:51:38;30.63;;;14.52;;
69970;SDS011;57301;50.328;8.542;2024-03-23T01:54:04;29.65;;;13.77;;
69970;SDS011;57301;50.328;8.542;2024-03-23T01:56:32;30.20;;;13.93;;
69970;SDS011;57301;50.328;8.542;2024-03-23T01:59:06;27.92;;;14.30;;
69970;SDS011;57301;50.328;8.542;2024-03-23T02:01:32;30.60;;;14.10;;
69970;SDS011;57301;50.328;8.542;2024-03-23T02:03:58;29.92;;;13.18;;
69970;SDS011;57301;50.328;8.542;2024-03-23T02:06:24;28.08;;;13.40;;
69970;SDS011;57301;50.328;8.542;2024-03-23T02:08:50;36.40;;;14.80;;
69970;SDS011;57301;50.328;8.542;2024-03-23T02:11:16;30.00;;;14.57;;
69970;SDS011;57301;50.328;8.542;2024-03-23T02:13:41;32.45;;;14.45;;
69970;SDS011;57301;50.328;8.542;2024-03-23T02:16:07;30.60;;;13.97;;
69970;SDS011;57301;50.328;8.542;2024-03-23T02:18:34;31.88;;;14.77;;
69970;SDS011;57301;50.328;8.542;2024-03-23T02:20:59;32.85;;;15.48;;
69970;SDS011;57301;50.328;8.542;2024-03-23T02:23:25;33.80;;;15.13;;
69970;SDS011;57301;50.328;8.542;2024-03-23T02:25:50;31.77;;;14.33;;
69970;SDS011;57301;50.328;8.542;2024-03-23T02:28:16;34.50;;;14.40;;
69970;SDS011;57301;50.328;8.542;2024-03-23T02:30:42;29.02;;;13.60;;
69970;SDS011;57301;50.328;8.542;2024-03-23T02:33:08;30.30;;;13.93;;
69970;SDS011;57301;50.328;8.542;2024-03-23T02:35:34;30.25;;;13.07;;
69970;SDS011;57301;50.328;8.542;2024-03-23T02:37:59;33.97;;;14.70;;
69970;SDS011;57301;50.328;8.542;2024-03-23T02:40:25;35.60;;;15.85;;
69970;SDS011;57301;50.328;8.542;2024-03-23T02:42:51;33.65;;;14.73;;
69970;SDS011;57301;50.328;8.542;2024-03-23T02:45:17;33.53;;;15.00;;
69970;SDS011;57301;50.328;8.542;2024-03-23T02:47:43;33.53;;;14.70;;
69970;SDS011;57301;50.328;8.542;2024-03-23T02:50:09;32.70;;;13.73;;
69970;SDS011;57301;50.328;8.542;2024-03-23T02:52:34;35.80;;;15.30;;
69970;SDS011;57301;50.328;8.542;2024-03-23T02:55:01;32.55;;;15.27;;
69970;SDS011;57301;50.328;8.542;2024-03-23T02:57:27;36.80;;;15.70;;
69970;SDS011;57301;50.328;8.542;2024-03-23T02:59:53;36.57;;;15.97;;
69970;SDS011;57301;50.328;8.542;2024-03-23T03:02:19;36.40;;;16.52;;
69970;SDS011;57301;50.328;8.542;2024-03-23T03:04:46;40.17;;;16.13;;
69970;SDS011;57301;50.328;8.542;2024-03-23T03:07:12;36.17;;;15.80;;
69970;SDS011;57301;50.328;8.542;2024-03-23T03:09:37;32.97;;;14.68;;
69970;SDS011;57301;50.328;8.542;2024-03-23T03:12:04;37.35;;;16.35;;
69970;SDS011;57301;50.328;8.542;2024-03-23T03:14:31;36.30;;;15.07;;
69970;SDS011;57301;50.328;8.542;2024-03-23T03:16:56;36.28;;;15.85;;
69970;SDS011;57301;50.328;8.542;2024-03-23T03:19:22;35.07;;;15.97;;
69970;SDS011;57301;50.328;8.542;2024-03-23T03:21:47;34.63;;;16.70;;
69970;SDS011;57301;50.328;8.542;2024-03-23T03:24:13;31.80;;;15.65;;
69970;SDS011;57301;50.328;8.542;2024-03-23T03:26:39;37.87;;;17.03;;
69970;SDS011;57301;50.328;8.542;2024-03-23T03:29:04;41.38;;;17.77;;
69970;SDS011;57301;50.328;8.542;2024-03-23T03:31:30;37.77;;;16.47;;
69970;SDS011;57301;50.328;8.542;2024-03-23T03:33:55;35.17;;;15.27;;
69970;SDS011;57301;50.328;8.542;2024-03-23T03:36:21;39.93;;;16.57;;
69970;SDS011;57301;50.328;8.542;2024-03-23T03:38:47;33.53;;;15.07;;
69970;SDS011;57301;50.328;8.542;2024-03-23T03:41:12;37.50;;;16.02;;
69970;SDS011;57301;50.328;8.542;2024-03-23T03:43:38;37.67;;;17.00;;
69970;SDS011;57301;50.328;8.542;2024-03-23T03:46:03;38.77;;;17.00;;
69970;SDS011;57301;50.328;8.542;2024-03-23T03:48:29;48.28;;;19.58;;
69970;SDS011;57301;50.328;8.542;2024-03-23T03:50:55;53.73;;;20.33;;
69970;SDS011;57301;50.328;8.542;2024-03-23T03:53:20;34.15;;;13.93;;
69970;SDS011;57301;50.328;8.542;2024-03-23T03:55:46;39.25;;;14.38;;
69970;SDS011;57301;50.328;8.542;2024-03-23T03:58:12;33.17;;;14.07;;
69970;SDS011;57301;50.328;8.542;2024-03-23T04:00:38;29.10;;;11.83;;
69970;SDS011;57301;50.328;8.542;2024-03-23T04:03:03;21.85;;;9.43;;
69970;SDS011;57301;50.328;8.542;2024-03-23T04:05:29;16.23;;;7.40;;
69970;SDS011;57301;50.328;8.542;2024-03-23T04:07:54;20.45;;;7.82;;
69970;SDS011;57301;50.328;8.542;2024-03-23T04:10:20;16.00;;;7.40;;
69970;SDS011;57301;50.328;8.542;2024-03-23T04:12:46;15.05;;;7.10;;
69970;SDS011;57301;50.328;8.542;2024-03-23T04:15:13;11.38;;;5.57;;
69970;SDS011;57301;50.328;8.542;2024-03-23T04:17:39;9.10;;;4.20;;
69970;SDS011;57301;50.328;8.542;2024-03-23T04:20:04;7.28;;;3.65;;
69970;SDS011;57301;50.328;8.542;2024-03-23T04:22:34;7.80;;;3.20;;
69970;SDS011;57301;50.328;8.542;2024-03-23T04:25:00;5.70;;;2.60;;
69970;SDS011;57301;50.328;8.542;2024-03-23T04:27:34;4.30;;;2.53;;
69970;SDS011;57301;50.328;8.542;2024-03-23T04:29:59;3.85;;;2.15;;
69970;SDS011;57301;50.328;8.542;2024-03-23T04:32:28;4.22;;;1.88;;
69970;SDS011;57301;50.328;8.542;2024-03-23T04:34:54;5.30;;;2.70;;
69970;SDS011;57301;50.328;8.542;2024-03-23T04:37:20;3.67;;;2.00;;
69970;SDS011;57301;50.328;8.542;2024-03-23T04:39:46;4.35;;;2.20;;
69970;SDS011;57301;50.328;8.542;2024-03-23T04:42:14;4.57;;;2.20;;
69970;SDS011;57301;50.328;8.542;2024-03-23T04:44:40;5.60;;;2.80;;
69970;SDS011;57301;50.328;8.542;2024-03-23T04:47:06;3.00;;;1.50;;
69970;SDS011;57301;50.328;8.542;2024-03-23T04:49:32;4.13;;;1.58;;
69970;SDS011;57301;50.328;8.542;2024-03-23T04:51:58;2.72;;;1.50;;
69970;SDS011;57301;50.328;8.542;2024-03-23T04:54:23;2.87;;;1.40;;
69970;SDS011;57301;50.328;8.542;2024-03-23T04:56:49;2.77;;;1.60;;
69970;SDS011;57301;50.328;8.542;2024-03-23T04:59:15;3.40;;;1.70;;
69970;SDS011;57301;50.328;8.542;2024-03-23T05:01:41;3.60;;;1.92;;
69970;SDS011;57301;50.328;8.542;2024-03-23T05:04:07;6.70;;;3.20;;
69970;SDS011;57301;50.328;8.542;2024-03-23T05:06:33;4.30;;;2.20;;
69970;SDS011;57301;50.328;8.542;2024-03-23T05:09:00;4.53;;;1.90;;
69970;SDS011;57301;50.328;8.542;2024-03-23T05:11:31;3.75;;;1.90;;
69970;SDS011;57301;50.328;8.542;2024-03-23T05:13:57;3.63;;;1.70;;
69970;SDS011;57301;50.328;8.542;2024-03-23T05:16:22;4.20;;;1.83;;
69970;SDS011;57301;50.328;8.542;2024-03-23T05:18:48;4.43;;;2.00;;
69970;SDS011;57301;50.328;8.542;2024-03-23T05:21:14;3.87;;;2.10;;
69970;SDS011;57301;50.328;8.542;2024-03-23T05:23:39;3.00;;;1.90;;
69970;SDS011;57301;50.328;8.542;2024-03-23T05:26:05;3.58;;;2.20;;
69970;SDS011;57301;50.328;8.542;2024-03-23T05:28:31;3.90;;;1.77;;
69970;SDS011;57301;50.328;8.542;2024-03-23T05:30:56;3.58;;;2.00;;
69970;SDS011;57301;50.328;8.542;2024-03-23T05:33:22;6.23;;;2.10;;
69970;SDS011;57301;50.328;8.542;2024-03-23T05:35:57;3.40;;;2.25;;
69970;SDS011;57301;50.328;8.542;2024-03-23T05:38:24;3.08;;;1.80;;
69970;SDS011;57301;50.328;8.542;2024-03-23T05:40:56;3.37;;;1.80;;
69970;SDS011;57301;50.328;8.542;2024-03-23T05:43:23;3.72;;;1.90;;
69970;SDS011;57301;50.328;8.542;2024-03-23T05:45:55;3.95;;;1.80;;
69970;SDS011;57301;50.328;8.542;2024-03-23T05:48:22;2.25;;;1.30;;
69970;SDS011;57301;50.328;8.542;2024-03-23T05:50:48;2.85;;;1.63;;
69970;SDS011;57301;50.328;8.542;2024-03-23T05:53:17;3.10;;;1.63;;
69970;SDS011;57301;50.328;8.542;2024-03-23T05:55:47;3.70;;;1.80;;
69970;SDS011;57301;50.328;8.542;2024-03-23T05:58:14;2.55;;;1.40;;
69970;SDS011;57301;50.328;8.542;2024-03-23T06:00:41;2.35;;;1.30;;
69970;SDS011;57301;50.328;8.542;2024-03-23T06:03:10;2.30;;;1.20;;
69970;SDS011;57301;50.328;8.542;2024-03-23T06:05:36;2.25;;;1.10;;
69970;SDS011;57301;50.328;8.542;2024-03-23T06:08:02;2.55;;;1.20;;
69970;SDS011;57301;50.328;8.542;2024-03-23T06:10:28;2.50;;;1.17;;
69970;SDS011;57301;50.328;8.542;2024-03-23T06:12:54;2.47;;;1.20;;
69970;SDS011;57301;50.328;8.542;2024-03-23T06:15:20;2.00;;;0.90;;
69970;SDS011;57301;50.328;8.542;2024-03-23T06:17:47;2.17;;;1.23;;
69970;SDS011;57301;50.328;8.542;2024-03-23T06:20:13;2.25;;;1.20;;
69970;SDS011;57301;50.328;8.542;2024-03-23T06:22:39;1.83;;;1.00;;
69970;SDS011;57301;50.328;8.542;2024-03-23T06:25:05;2.28;;;1.10;;
69970;SDS011;57301;50.328;8.542;2024-03-23T06:27:32;1.95;;;1.00;;
69970;SDS011;57301;50.328;8.542;2024-03-23T06:29:58;2.53;;;1.07;;
69970;SDS011;57301;50.328;8.542;2024-03-23T06:32:24;3.15;;;1.10;;
69970;SDS011;57301;50.328;8.542;2024-03-23T06:34:50;2.35;;;1.10;;
69970;SDS011;57301;50.328;8.542;2024-03-23T06:37:16;3.10;;;1.30;;
69970;SDS011;57301;50.328;8.542;2024-03-23T06:39:41;3.13;;;1.25;;
69970;SDS011;57301;50.328;8.542;2024-03-23T06:42:07;2.00;;;1.00;;
69970;SDS011;57301;50.328;8.542;2024-03-23T06:44:35;2.40;;;1.20;;
69970;SDS011;57301;50.328;8.542;2024-03-23T06:47:01;2.67;;;1.30;;
69970;SDS011;57301;50.328;8.542;2024-03-23T06:49:27;4.57;;;1.30;;
69970;SDS011;57301;50.328;8.542;2024-03-23T06:51:53;2.00;;;1.20;;
69970;SDS011;57301;50.328;8.542;2024-03-23T06:54:19;2.83;;;1.00;;
69970;SDS011;57301;50.328;8.542;2024-03-23T06:56:45;3.78;;;1.40;;
69970;SDS011;57301;50.328;8.542;2024-03-23T06:59:11;3.50;;;1.40;;
69970;SDS011;57301;50.328;8.542;2024-03-23T07:01:36;5.05;;;1.38;;
69970;SDS011;57301;50.328;8.542;2024-03-23T07:04:02;2.30;;;1.30;;
69970;SDS011;57301;50.328;8.542;2024-03-23T07:06:29;3.40;;;1.60;;
69970;SDS011;57301;50.328;8.542;2024-03-23T07:08:55;3.65;;;1.70;;
69970;SDS011;57301;50.328;8.542;2024-03-23T07:11:21;4.22;;;1.60;;
69970;SDS011;57301;50.328;8.542;2024-03-23T07:13:50;4.30;;;1.88;;
69970;SDS011;57301;50.328;8.542;2024-03-23T07:16:17;2.83;;;1.43;;
69970;SDS011;57301;50.328;8.542;2024-03-23T07:18:43;5.70;;;2.30;;
69970;SDS011;57301;50.328;8.542;2024-03-23T07:21:09;6.65;;;2.25;;
69970;SDS011;57301;50.328;8.542;2024-03-23T07:23:35;4.97;;;1.90;;
69970;SDS011;57301;50.328;8.542;2024-03-23T07:26:04;6.07;;;2.13;;
69970;SDS011;57301;50.328;8.542;2024-03-23T07:28:31;4.53;;;2.80;;
69970;SDS011;57301;50.328;8.542;2024-03-23T07:33:30;6.00;;;2.33;;
69970;SDS011;57301;50.328;8.542;2024-03-23T07:35:56;5.53;;;2.72;;
69970;SDS011;57301;50.328;8.542;2024-03-23T07:38:22;7.03;;;3.20;;
69970;SDS011;57301;50.328;8.542;2024-03-23T07:40:49;5.75;;;2.90;;
69970;SDS011;57301;50.328;8.542;2024-03-23T07:43:21;5.57;;;2.75;;
69970;SDS011;57301;50.328;8.542;2024-03-23T07:45:53;6.13;;;2.90;;
69970;SDS011;57301;50.328;8.542;2024-03-23T07:48:20;7.50;;;3.60;;
69970;SDS011;57301;50.328;8.542;2024-03-23T07:50:59;7.30;;;3.50;;
69970;SDS011;57301;50.328;8.542;2024-03-23T07:53:26;8.13;;;4.05;;
69970;SDS011;57301;50.328;8.542;2024-03-23T07:55:56;8.00;;;3.60;;
69970;SDS011;57301;50.328;8.542;2024-03-23T07:58:32;15.85;;;7.75;;
69970;SDS011;57301;50.328;8.542;2024-03-23T08:01:05;9.13;;;4.40;;
69970;SDS011;57301;50.328;8.542;2024-03-23T08:03:35;8.47;;;3.60;;
69970;SDS011;57301;50.328;8.542;2024-03-23T08:06:11;8.93;;;3.70;;
69970;SDS011;57301;50.328;8.542;2024-03-23T08:08:54;13.55;;;7.70;;
69970;SDS011;57301;50.328;8.542;2024-03-23T08:11:30;9.85;;;4.88;;
69970;SDS011;57301;50.328;8.542;2024-03-23T08:13:57;8.15;;;4.80;;
69970;SDS011;57301;50.328;8.542;2024-03-23T08:16:23;9.17;;;4.83;;
69970;SDS011;57301;50.328;8.542;2024-03-23T08:18:52;9.38;;;5.15;;
69970;SDS011;57301;50.328;8.542;2024-03-23T08:21:17;12.98;;;4.80;;
69970;SDS011;57301;50.328;8.542;2024-03-23T08:23:43;11.82;;;5.28;;
69970;SDS011;57301;50.328;8.542;2024-03-23T08:26:09;12.13;;;5.63;;
69970;SDS011;57301;50.328;8.542;2024-03-23T08:28:36;13.95;;;5.70;;
69970;SDS011;57301;50.328;8.542;2024-03-23T08:31:10;12.23;;;5.07;;
69970;SDS011;57301;50.328;8.542;2024-03-23T08:33:37;11.10;;;5.03;;
69970;SDS011;57301;50.328;8.542;2024-03-23T08:36:04;12.07;;;5.60;;
69970;SDS011;57301;50.328;8.542;2024-03-23T08:38:31;8.40;;;4.78;;
69970;SDS011;57301;50.328;8.542;2024-03-23T08:41:00;10.98;;;4.50;;
69970;SDS011;57301;50.328;8.542;2024-03-23T08:43:28;13.88;;;5.03;;
69970;SDS011;57301;50.328;8.542;2024-03-23T08:46:03;8.50;;;4.90;;
69970;SDS011;57301;50.328;8.542;2024-03-23T08:48:39;12.67;;;5.13;;
69970;SDS011;57301;50.328;8.542;2024-03-23T08:51:08;11.43;;;4.57;;
69970;SDS011;57301;50.328;8.542;2024-03-23T08:53:35;10.32;;;4.53;;
69970;SDS011;57301;50.328;8.542;2024-03-23T08:56:01;12.95;;;5.10;;
69970;SDS011;57301;50.328;8.542;2024-03-23T08:58:29;11.48;;;4.60;;
69970;SDS011;57301;50.328;8.542;2024-03-23T09:00:56;10.83;;;4.50;;
69970;SDS011;57301;50.328;8.542;2024-03-23T09:03:23;14.38;;;4.53;;
69970;SDS011;57301;50.328;8.542;2024-03-23T09:05:50;12.25;;;4.53;;
69970;SDS011;57301;50.328;8.542;2024-03-23T09:08:16;11.38;;;4.78;;
69970;SDS011;57301;50.328;8.542;2024-03-23T09:10:42;10.93;;;4.80;;
69970;SDS011;57301;50.328;8.542;2024-03-23T09:13:08;9.82;;;3.80;;
69970;SDS011;57301;50.328;8.542;2024-03-23T09:15:34;12.23;;;4.20;;
69970;SDS011;57301;50.328;8.542;2024-03-23T09:18:10;12.13;;;4.70;;
69970;SDS011;57301;50.328;8.542;2024-03-23T09:20:36;11.87;;;4.43;;
69970;SDS011;57301;50.328;8.542;2024-03-23T09:23:01;10.57;;;3.87;;
69970;SDS011;57301;50.328;8.542;2024-03-23T09:25:27;10.40;;;3.63;;
69970;SDS011;57301;50.328;8.542;2024-03-23T09:27:52;14.10;;;3.40;;
69970;SDS011;57301;50.328;8.542;2024-03-23T09:30:18;10.07;;;3.20;;
69970;SDS011;57301;50.328;8.542;2024-03-23T09:32:45;9.93;;;3.77;;
69970;SDS011;57301;50.328;8.542;2024-03-23T09:35:11;7.95;;;3.30;;
69970;SDS011;57301;50.328;8.542;2024-03-23T09:37:40;8.40;;;3.50;;
69970;SDS011;57301;50.328;8.542;2024-03-23T09:40:14;8.60;;;3.47;;
69970;SDS011;57301;50.328;8.542;2024-03-23T09:42:40;10.43;;;3.23;;
69970;SDS011;57301;50.328;8.542;2024-03-23T09:45:17;13.65;;;4.38;;
69970;SDS011;57301;50.328;8.542;2024-03-23T09:47:46;9.82;;;4.50;;
69970;SDS011;57301;50.328;8.542;2024-03-23T09:50:12;10.43;;;3.70;;
69970;SDS011;57301;50.328;8.542;2024-03-23T09:52:39;10.60;;;4.05;;
69970;SDS011;57301;50.328;8.542;2024-03-23T09:55:05;9.03;;;3.20;;
69970;SDS011;57301;50.328;8.542;2024-03-23T09:57:31;10.40;;;2.97;;
69970;SDS011;57301;50.328;8.542;2024-03-23T09:59:57;7.93;;;3.00;;
69970;SDS011;57301;50.328;8.542;2024-03-23T10:02:23;8.32;;;2.75;;
69970;SDS011;57301;50.328;8.542;2024-03-23T10:04:49;7.22;;;2.70;;
69970;SDS011;57301;50.328;8.542;2024-03-23T10:07:19;7.85;;;2.78;;
69970;SDS011;57301;50.328;8.542;2024-03-23T10:09:46;8.20;;;2.47;;
69970;SDS011;57301;50.328;8.542;2024-03-23T10:12:18;8.75;;;2.50;;
69970;SDS011;57301;50.328;8.542;2024-03-23T10:14:45;7.60;;;2.78;;
69970;SDS011;57301;50.328;8.542;2024-03-23T10:19:43;9.02;;;1.98;;
69970;SDS011;57301;50.328;8.542;2024-03-23T10:22:13;6.97;;;2.30;;
69970;SDS011;57301;50.328;8.542;2024-03-23T10:24:41;5.82;;;2.17;;
69970;SDS011;57301;50.328;8.542;2024-03-23T10:27:07;8.55;;;2.88;;
69970;SDS011;57301;50.328;8.542;2024-03-23T10:29:33;6.73;;;2.23;;
69970;SDS011;57301;50.328;8.542;2024-03-23T10:32:08;4.40;;;1.88;;
69970;SDS011;57301;50.328;8.542;2024-03-23T10:34:35;9.18;;;1.60;;
69970;SDS011;57301;50.328;8.542;2024-03-23T10:37:02;9.37;;;2.07;;
69970;SDS011;57301;50.328;8.542;2024-03-23T10:39:35;6.32;;;2.10;;
69970;SDS011;57301;50.328;8.542;2024-03-23T10:42:05;4.40;;;1.73;;
69970;SDS011;57301;50.328;8.542;2024-03-23T10:44:42;5.28;;;1.90;;
69970;SDS011;57301;50.328;8.542;2024-03-23T10:47:07;6.83;;;1.90;;
69970;SDS011;57301;50.328;8.542;2024-03-23T10:49:34;5.25;;;1.80;;
69970;SDS011;57301;50.328;8.542;2024-03-23T10:52:04;7.68;;;2.20;;
69970;SDS011;57301;50.328;8.542;2024-03-23T10:54:30;9.70;;;2.70;;
69970;SDS011;57301;50.328;8.542;2024-03-23T10:57:11;7.93;;;1.90;;
69970;SDS011;57301;50.328;8.542;2024-03-23T10:59:40;6.28;;;2.10;;
69970;SDS011;57301;50.328;8.542;2024-03-23T11:02:06;6.13;;;2.00;;
69970;SDS011;57301;50.328;8.542;2024-03-23T11:04:35;6.45;;;2.08;;
69970;SDS011;57301;50.328;8.542;2024-03-23T11:09:51;5.57;;;1.60;;
69970;SDS011;57301;50.328;8.542;2024-03-23T11:14:50;6.75;;;2.08;;
69970;SDS011;57301;50.328;8.542;2024-03-23T11:17:22;8.80;;;2.25;;
69970;SDS011;57301;50.328;8.542;2024-03-23T11:19:56;6.00;;;2.40;;
69970;SDS011;57301;50.328;8.542;2024-03-23T11:25:16;6.25;;;2.30;;
69970;SDS011;57301;50.328;8.542;2024-03-23T11:27:44;5.90;;;2.20;;
69970;SDS011;57301;50.328;8.542;2024-03-23T11:30:11;6.35;;;2.10;;
69970;SDS011;57301;50.328;8.542;2024-03-23T11:32:46;9.73;;;2.83;;
69970;SDS011;57301;50.328;8.542;2024-03-23T11:38:10;6.43;;;2.30;;
69970;SDS011;57301;50.328;8.542;2024-03-23T11:40:38;6.95;;;2.38;;
69970;SDS011;57301;50.328;8.542;2024-03-23T11:43:08;7.30;;;2.40;;
69970;SDS011;57301;50.328;8.542;2024-03-23T11:48:20;8.77;;;3.03;;
69970;SDS011;57301;50.328;8.542;2024-03-23T11:50:47;8.18;;;3.13;;
69970;SDS011;57301;50.328;8.542;2024-03-23T11:53:23;7.05;;;2.55;;
69970;SDS011;57301;50.328;8.542;2024-03-23T11:55:59;6.50;;;2.72;;
69970;SDS011;57301;50.328;8.542;2024-03-23T11:58:26;7.03;;;2.80;;
69970;SDS011;57301;50.328;8.542;2024-03-23T12:03:21;7.20;;;3.10;;
69970;SDS011;57301;50.328;8.542;2024-03-23T12:05:51;6.30;;;2.65;;
69970;SDS011;57301;50.328;8.542;2024-03-23T12:08:19;8.10;;;2.70;;
69970;SDS011;57301;50.328;8.542;2024-03-23T12:10:47;9.07;;;2.80;;
69970;SDS011;57301;50.328;8.542;2024-03-23T12:13:15;7.05;;;2.80;;
69970;SDS011;57301;50.328;8.542;2024-03-23T12:15:42;9.23;;;3.30;;
69970;SDS011;57301;50.328;8.542;2024-03-23T12:18:09;6.28;;;3.10;;
69970;SDS011;57301;50.328;8.542;2024-03-23T12:20:35;6.57;;;3.17;;
69970;SDS011;57301;50.328;8.542;2024-03-23T12:23:06;7.50;;;2.93;;
69970;SDS011;57301;50.328;8.542;2024-03-23T12:25:32;5.82;;;2.50;;
69970;SDS011;57301;50.328;8.542;2024-03-23T12:28:00;6.87;;;2.50;;
69970;SDS011;57301;50.328;8.542;2024-03-23T12:30:26;4.57;;;2.70;;
69970;SDS011;57301;50.328;8.542;2024-03-23T12:32:51;11.80;;;6.05;;
69970;SDS011;57301;50.328;8.542;2024-03-23T12:35:17;6.77;;;2.90;;
69970;SDS011;57301;50.328;8.542;2024-03-23T12:37:46;6.63;;;2.70;;
69970;SDS011;57301;50.328;8.542;2024-03-23T12:40:11;7.00;;;2.90;;
69970;SDS011;57301;50.328;8.542;2024-03-23T12:42:37;3.45;;;1.70;;
69970;SDS011;57301;50.328;8.542;2024-03-23T12:45:03;4.37;;;1.40;;
69970;SDS011;57301;50.328;8.542;2024-03-23T12:47:32;4.13;;;1.55;;
69970;SDS011;57301;50.328;8.542;2024-03-23T12:49:57;3.67;;;1.58;;
69970;SDS011;57301;50.328;8.542;2024-03-23T12:52:23;3.10;;;1.30;;
69970;SDS011;57301;50.328;8.542;2024-03-23T12:54:54;2.30;;;1.23;;
69970;SDS011;57301;50.328;8.542;2024-03-23T12:57:22;5.00;;;1.50;;
69970;SDS011;57301;50.328;8.542;2024-03-23T12:59:48;4.67;;;1.50;;
69970;SDS011;57301;50.328;8.542;2024-03-23T13:02:17;3.85;;;1.50;;
69970;SDS011;57301;50.328;8.542;2024-03-23T13:04:44;6.03;;;1.55;;
69970;SDS011;57301;50.328;8.542;2024-03-23T13:07:10;3.88;;;1.55;;
69970;SDS011;57301;50.328;8.542;2024-03-23T13:09:36;2.80;;;1.40;;
69970;SDS011;57301;50.328;8.542;2024-03-23T13:12:01;5.93;;;1.70;;
69970;SDS011;57301;50.328;8.542;2024-03-23T13:14:27;5.37;;;1.97;;
69970;SDS011;57301;50.328;8.542;2024-03-23T13:16:53;9.07;;;3.67;;
69970;SDS011;57301;50.328;8.542;2024-03-23T13:19:18;3.90;;;2.20;;
69970;SDS011;57301;50.328;8.542;2024-03-23T13:21:45;4.55;;;1.88;;
69970;SDS011;57301;50.328;8.542;2024-03-23T13:24:10;4.53;;;2.37;;
69970;SDS011;57301;50.328;8.542;2024-03-23T13:26:36;4.22;;;2.40;;
69970;SDS011;57301;50.328;8.542;2024-03-23T13:29:02;8.83;;;5.47;;
69970;SDS011;57301;50.328;8.542;2024-03-23T13:31:27;4.17;;;2.13;;
69970;SDS011;57301;50.328;8.542;2024-03-23T13:33:53;3.75;;;2.15;;
69970;SDS011;57301;50.328;8.542;2024-03-23T13:36:18;3.40;;;2.17;;
69970;SDS011;57301;50.328;8.542;2024-03-23T13:38:44;5.30;;;2.80;;
69970;SDS011;57301;50.328;8.542;2024-03-23T13:41:09;8.35;;;2.95;;
69970;SDS011;57301;50.328;8.542;2024-03-23T13:43:37;3.67;;;1.95;;
69970;SDS011;57301;50.328;8.542;2024-03-23T13:46:03;6.53;;;2.90;;
69970;SDS011;57301;50.328;8.542;2024-03-23T13:48:29;9.02;;;4.88;;
69970;SDS011;57301;50.328;8.542;2024-03-23T13:51:01;8.23;;;5.13;;
69970;SDS011;57301;50.328;8.542;2024-03-23T13:53:30;4.03;;;2.60;;
69970;SDS011;57301;50.328;8.542;2024-03-23T13:55:58;3.85;;;3.45;;
69970;SDS011;57301;50.328;8.542;2024-03-23T13:58:23;5.43;;;3.60;;
69970;SDS011;57301;50.328;8.542;2024-03-23T14:00:51;3.55;;;2.00;;
69970;SDS011;57301;50.328;8.542;2024-03-23T14:03:17;4.05;;;1.90;;
69970;SDS011;57301;50.328;8.542;2024-03-23T14:05:46;3.43;;;2.03;;
69970;SDS011;57301;50.328;8.542;2024-03-23T14:08:14;4.43;;;2.90;;
69970;SDS011;57301;50.328;8.542;2024-03-23T14:10:40;6.18;;;2.90;;
69970;SDS011;57301;50.328;8.542;2024-03-23T14:13:07;4.00;;;1.83;;
69970;SDS011;57301;50.328;8.542;2024-03-23T14:15:32;2.65;;;1.50;;
69970;SDS011;57301;50.328;8.542;2024-03-23T14:17:58;4.00;;;2.20;;
69970;SDS011;57301;50.328;8.542;2024-03-23T14:20:24;2.40;;;1.40;;
69970;SDS011;57301;50.328;8.542;2024-03-23T14:22:53;2.95;;;1.73;;
69970;SDS011;57301;50.328;8.542;2024-03-23T14:25:19;3.87;;;1.77;;
69970;SDS011;57301;50.328;8.542;2024-03-23T14:27:45;5.07;;;2.63;;
69970;SDS011;57301;50.328;8.542;2024-03-23T14:30:11;3.28;;;2.20;;
69970;SDS011;57301;50.328;8.542;2024-03-23T14:32:38;4.78;;;2.95;;
69970;SDS011;57301;50.328;8.542;2024-03-23T14:35:04;3.00;;;1.60;;
69970;SDS011;57301;50.328;8.542;2024-03-23T14:37:29;2.72;;;1.48;;
69970;SDS011;57301;50.328;8.542;2024-03-23T14:39:56;3.95;;;1.67;;
69970;SDS011;57301;50.328;8.542;2024-03-23T14:42:22;2.60;;;1.50;;
69970;SDS011;57301;50.328;8.542;2024-03-23T14:44:49;2.83;;;1.30;;
69970;SDS011;57301;50.328;8.542;2024-03-23T14:47:15;3.05;;;1.55;;
69970;SDS011;57301;50.328;8.542;2024-03-23T14:49:41;3.63;;;1.95;;
69970;SDS011;57301;50.328;8.542;2024-03-23T14:52:06;3.00;;;1.90;;
69970;SDS011;57301;50.328;8.542;2024-03-23T14:54:34;4.10;;;2.47;;
69970;SDS011;57301;50.328;8.542;2024-03-23T14:57:00;2.83;;;1.80;;
69970;SDS011;57301;50.328;8.542;2024-03-23T14:59:26;3.53;;;1.80;;
69970;SDS011;57301;50.328;8.542;2024-03-23T15:01:51;2.35;;;1.25;;
69970;SDS011;57301;50.328;8.542;2024-03-23T15:04:17;3.93;;;1.40;;
69970;SDS011;57301;50.328;8.542;2024-03-23T15:06:42;2.50;;;1.30;;
69970;SDS011;57301;50.328;8.542;2024-03-23T15:09:08;2.30;;;1.23;;
69970;SDS011;57301;50.328;8.542;2024-03-23T15:11:37;3.42;;;1.40;;
69970;SDS011;57301;50.328;8.542;2024-03-23T15:14:02;4.20;;;1.80;;
69970;SDS011;57301;50.328;8.542;2024-03-23T15:16:28;2.85;;;1.50;;
69970;SDS011;57301;50.328;8.542;2024-03-23T15:18:53;3.20;;;1.60;;
69970;SDS011;57301;50.328;8.542;2024-03-23T15:21:19;3.77;;;1.90;;
69970;SDS011;57301;50.328;8.542;2024-03-23T15:23:46;6.35;;;1.90;;
69970;SDS011;57301;50.328;8.542;2024-03-23T15:26:13;5.28;;;1.77;;
69970;SDS011;57301;50.328;8.542;2024-03-23T15:28:38;2.90;;;1.90;;
69970;SDS011;57301;50.328;8.542;2024-03-23T15:31:09;3.30;;;2.10;;
69970;SDS011;57301;50.328;8.542;2024-03-23T15:33:35;5.88;;;3.33;;
69970;SDS011;57301;50.328;8.542;2024-03-23T15:36:04;4.78;;;2.55;;
69970;SDS011;57301;50.328;8.542;2024-03-23T15:38:33;4.35;;;2.17;;
69970;SDS011;57301;50.328;8.542;2024-03-23T15:40:59;3.37;;;1.80;;
69970;SDS011;57301;50.328;8.542;2024-03-23T15:43:25;3.17;;;1.40;;
69970;SDS011;57301;50.328;8.542;2024-03-23T15:45:55;4.90;;;1.65;;
69970;SDS011;57301;50.328;8.542;2024-03-23T15:48:20;3.65;;;1.67;;
69970;SDS011;57301;50.328;8.542;2024-03-23T15:50:59;4.57;;;1.80;;
69970;SDS011;57301;50.328;8.542;2024-03-23T15:53:26;3.13;;;1.63;;
69970;SDS011;57301;50.328;8.542;2024-03-23T15:55:55;5.15;;;2.17;;